sensor_id;sensor_type;location;lat;lon;timestamp;temperature;humidity
24452;DHT22;13350;50.984;5.822;2023-04-24T00:01:41;9.60;99.90
24452;DHT22;13350;50.984;5.822;2023-04-24T00:04:09;9.50;99.90
24452;DHT22;13350;50.984;5.822;2023-04-24T00:06:36;9.50;99.90
24452;DHT22;13350;50.984;5.822;2023-04-24T00:09:04;9.50;99.90
24452;DHT22;13350;50.984;5.822;2023-04-24T00:11:31;9.50;99.90
24452;DHT22;13350;50.984;5.822;2023-04-24T00:13:59;9.50;99.90
24452;DHT22;13350;50.984;5.822;2023-04-24T00:16:26;9.50;99.90
24452;DHT22;13350;50.984;5.822;2023-04-24T00:18:55;9.50;99.90
24452;DHT22;13350;50.984;5.822;2023-04-24T00:21:22;9.40;99.90
24452;DHT22;13350;50.984;5.822;2023-04-24T00:23:51;9.50;99.90
24452;DHT22;13350;50.984;5.822;2023-04-24T00:26:19;9.40;99.90
24452;DHT22;13350;50.984;5.822;2023-04-24T00:28:46;9.40;99.90
24452;DHT22;13350;50.984;5.822;2023-04-24T00:31:14;9.40;99.90
24452;DHT22;13350;50.984;5.822;2023-04-24T00:33:41;9.30;99.90
24452;DHT22;13350;50.984;5.822;2023-04-24T00:36:10;9.30;99.90
24452;DHT22;13350;50.984;5.822;2023-04-24T00:38:37;9.30;99.90
24452;DHT22;13350;50.984;5.822;2023-04-24T00:41:05;9.30;99.90
24452;DHT22;13350;50.984;5.822;2023-04-24T00:43:33;9.30;99.90
24452;DHT22;13350;50.984;5.822;2023-04-24T00:46:00;9.30;99.90
24452;DHT22;13350;50.984;5.822;2023-04-24T00:48:28;9.30;99.90
24452;DHT22;13350;50.984;5.822;2023-04-24T00:50:55;9.30;99.90
24452;DHT22;13350;50.984;5.822;2023-04-24T00:53:24;9.30;99.90
24452;DHT22;13350;50.984;5.822;2023-04-24T00:55:51;9.30;99.90
24452;DHT22;13350;50.984;5.822;2023-04-24T00:58:19;9.30;99.90
24452;DHT22;13350;50.984;5.822;2023-04-24T01:00:46;9.30;99.90
24452;DHT22;13350;50.984;5.822;2023-04-24T01:03:16;9.30;99.90
24452;DHT22;13350;50.984;5.822;2023-04-24T01:05:44;9.30;99.90
24452;DHT22;13350;50.984;5.822;2023-04-24T01:08:11;9.30;99.90
24452;DHT22;13350;50.984;5.822;2023-04-24T01:10:41;9.30;99.90
24452;DHT22;13350;50.984;5.822;2023-04-24T01:13:08;9.30;99.90
24452;DHT22;13350;50.984;5.822;2023-04-24T01:15:36;9.30;99.90
24452;DHT22;13350;50.984;5.822;2023-04-24T01:18:03;9.30;99.90
24452;DHT22;13350;50.984;5.822;2023-04-24T01:20:32;9.30;99.90
24452;DHT22;13350;50.984;5.822;2023-04-24T01:23:01;9.30;99.90
24452;DHT22;13350;50.984;5.822;2023-04-24T01:25:29;9.30;99.90
24452;DHT22;13350;50.984;5.822;2023-04-24T01:27:57;9.20;99.90
24452;DHT22;13350;50.984;5.822;2023-04-24T01:30:25;9.20;99.90
24452;DHT22;13350;50.984;5.822;2023-04-24T01:32:53;9.20;99.90
24452;DHT22;13350;50.984;5.822;2023-04-24T01:35:20;9.20;99.90
24452;DHT22;13350;50.984;5.822;2023-04-24T01:37:47;9.20;99.90
24452;DHT22;13350;50.984;5.822;2023-04-24T01:40:16;9.30;99.90
24452;DHT22;13350;50.984;5.822;2023-04-24T01:42:43;9.30;99.90
24452;DHT22;13350;50.984;5.822;2023-04-24T01:45:12;9.30;99.90
24452;DHT22;13350;50.984;5.822;2023-04-24T01:47:39;9.30;99.90
24452;DHT22;13350;50.984;5.822;2023-04-24T01:50:08;9.30;99.90
24452;DHT22;13350;50.984;5.822;2023-04-24T01:52:35;9.20;99.90
24452;DHT22;13350;50.984;5.822;2023-04-24T01:55:03;9.30;99.90
24452;DHT22;13350;50.984;5.822;2023-04-24T01:57:33;9.20;99.90
24452;DHT22;13350;50.984;5.822;2023-04-24T22:51:41;7.50;99.90
24452;DHT22;13350;50.984;5.822;2023-04-24T22:54:08;7.50;99.90
24452;DHT22;13350;50.984;5.822;2023-04-24T22:56:35;7.50;99.90
24452;DHT22;13350;50.984;5.822;2023-04-24T22:59:02;7.50;99.90
24452;DHT22;13350;50.984;5.822;2023-04-24T23:01:31;7.40;99.90
24452;DHT22;13350;50.984;5.822;2023-04-24T23:03:58;7.50;99.90
24452;DHT22;13350;50.984;5.822;2023-04-24T23:06:25;7.50;99.90
24452;DHT22;13350;50.984;5.822;2023-04-24T23:08:54;7.40;99.90
24452;DHT22;13350;50.984;5.822;2023-04-24T23:11:21;7.40;99.90
24452;DHT22;13350;50.984;5.822;2023-04-24T23:13:48;7.50;99.90
24452;DHT22;13350;50.984;5.822;2023-04-24T23:16:16;7.50;99.90
24452;DHT22;13350;50.984;5.822;2023-04-24T23:18:43;7.40;99.90
24452;DHT22;13350;50.984;5.822;2023-04-24T23:21:10;7.30;99.90
24452;DHT22;13350;50.984;5.822;2023-04-24T23:23:38;7.30;99.90
24452;DHT22;13350;50.984;5.822;2023-04-24T23:26:06;7.30;99.90
24452;DHT22;13350;50.984;5.822;2023-04-24T23:28:34;7.20;99.90
24452;DHT22;13350;50.984;5.822;2023-04-24T23:31:02;7.20;99.90
24452;DHT22;13350;50.984;5.822;2023-04-24T23:33:29;7.20;99.90
24452;DHT22;13350;50.984;5.822;2023-04-24T23:35:56;7.10;99.90
24452;DHT22;13350;50.984;5.822;2023-04-24T23:38:24;7.00;99.90
24452;DHT22;13350;50.984;5.822;2023-04-24T23:40:51;7.00;99.90
24452;DHT22;13350;50.984;5.822;2023-04-24T23:43:20;7.10;99.90
24452;DHT22;13350;50.984;5.822;2023-04-24T23:45:47;7.20;99.90
24452;DHT22;13350;50.984;5.822;2023-04-24T23:48:14;7.20;99.90
24452;DHT22;13350;50.984;5.822;2023-04-24T23:50:41;7.20;99.90
24452;DHT22;13350;50.984;5.822;2023-04-24T23:53:09;7.10;99.90
24452;DHT22;13350;50.984;5.822;2023-04-24T23:55:36;7.10;99.90
24452;DHT22;13350;50.984;5.822;2023-04-24T23:58:03;7.20;99.90
